Anzahl Datensätze: 173
min. Temperatur: 2.1 °C
max. Temperatur: 7.2 °C
max. Windgeschwindigkeit: 7.2 km/h
Niederschlagsumme: 5.2 mm
| Datum |
Zeit |
Temp °C |
Feuchte % |
Taupunkt °C |
Luftdruck hPa |
Wind km/h |
Windrichtung |
Strahlung w/m² |
Niederschlag mm |
|---|---|---|---|---|---|---|---|---|---|
| 03.02.2026 | 09:34 | 2.1 | 94 | 1.2 | 995.8 | 1.3 | ONO | 19 | 3.2 |
| 03.02.2026 | 09:39 | 2.1 | 94 | 1.2 | 995.6 | 1.3 | NO | 30 | 3.2 |
| 03.02.2026 | 09:44 | 2.1 | 94 | 1.2 | 995.5 | 2.7 | O | 37 | 3.4 |
| 03.02.2026 | 09:49 | 2.2 | 94 | 1.3 | 995.6 | 1.3 | NO | 42 | 3.4 |
| 03.02.2026 | 09:54 | 2.3 | 94 | 1.4 | 995.8 | 1.3 | NNO | 35 | 3.4 |
| 03.02.2026 | 09:59 | 2.3 | 94 | 1.4 | 995.7 | 0.9 | ONO | 42 | 3.4 |
| 03.02.2026 | 10:04 | 2.2 | 94 | 1.3 | 995.6 | 1.3 | N | 65 | 3.4 |
| 03.02.2026 | 10:09 | 2.2 | 94 | 1.3 | 995.4 | 2.2 | NO | 63 | 3.4 |
| 03.02.2026 | 10:14 | 2.3 | 94 | 1.4 | 995.2 | 1.3 | O | 76 | 3.4 |
| 03.02.2026 | 10:19 | 2.3 | 94 | 1.4 | 995.2 | 1.3 | ONO | 97 | 3.4 |
| 03.02.2026 | 10:24 | 2.4 | 94 | 1.5 | 995.3 | 1.8 | O | 54 | 3.4 |
| 03.02.2026 | 10:29 | 2.5 | 94 | 1.6 | 995.5 | 1.3 | NO | 84 | 3.4 |
| 03.02.2026 | 10:34 | 2.5 | 94 | 1.6 | 995.5 | 1.3 | ONO | 100 | 3.4 |
| 03.02.2026 | 10:39 | 2.6 | 94 | 1.7 | 995.5 | 0.4 | O | 74 | 3.4 |
| 03.02.2026 | 10:44 | 2.6 | 94 | 1.7 | 995.7 | 0.9 | OSO | 56 | 3.4 |
| 03.02.2026 | 10:49 | 2.6 | 94 | 1.7 | 995.7 | 1.3 | SO | 62 | 3.4 |
| 03.02.2026 | 10:54 | 2.7 | 94 | 1.8 | 995.6 | 2.7 | NO | 116 | 3.4 |
| 03.02.2026 | 10:59 | 2.7 | 94 | 1.8 | 995.5 | 2.7 | O | 107 | 3.4 |
| 03.02.2026 | 11:04 | 2.8 | 94 | 1.9 | 995.5 | 3.6 | O | 148 | 3.4 |
| 03.02.2026 | 11:10 | 2.9 | 94 | 2.0 | 995.6 | 1.3 | ONO | 146 | 3.4 |
| 03.02.2026 | 11:15 | 2.9 | 94 | 2.0 | 995.8 | 0.9 | O | 118 | 3.4 |
| 03.02.2026 | 11:20 | 3.0 | 94 | 2.1 | 995.8 | 3.1 | O | 113 | 3.4 |
| 03.02.2026 | 11:25 | 2.9 | 94 | 2.0 | 995.9 | 2.7 | O | 128 | 3.4 |
| 03.02.2026 | 11:30 | 3.0 | 94 | 2.1 | 996.0 | 3.6 | ONO | 109 | 3.4 |
| 03.02.2026 | 11:35 | 3.0 | 94 | 2.1 | 995.9 | 0.0 | SO | 171 | 3.4 |
| 03.02.2026 | 11:40 | 3.1 | 94 | 2.2 | 996.0 | 0.9 | OSO | 167 | 3.4 |
| 03.02.2026 | 11:45 | 3.3 | 94 | 2.4 | 995.9 | 0.9 | O | 218 | 3.4 |
| 03.02.2026 | 11:50 | 3.4 | 94 | 2.5 | 995.9 | 0.9 | SO | 176 | 3.4 |
| 03.02.2026 | 11:55 | 3.5 | 94 | 2.6 | 995.9 | 0.9 | SSO | 86 | 3.4 |
| 03.02.2026 | 12:00 | 3.5 | 94 | 2.6 | 996.0 | 0.9 | OSO | 44 | 3.4 |
| 03.02.2026 | 12:05 | 3.5 | 94 | 2.6 | 996.0 | 0.9 | O | 56 | 3.4 |
| 03.02.2026 | 12:10 | 3.5 | 94 | 2.6 | 996.0 | 0.9 | OSO | 58 | 3.4 |
| 03.02.2026 | 12:15 | 3.4 | 94 | 2.5 | 995.9 | 1.8 | O | 74 | 3.4 |
| 03.02.2026 | 12:20 | 3.4 | 94 | 2.5 | 995.9 | 0.4 | OSO | 56 | 3.4 |
| 03.02.2026 | 12:25 | 3.3 | 94 | 2.4 | 995.9 | 3.6 | O | 49 | 3.4 |
| 03.02.2026 | 12:30 | 3.3 | 94 | 2.4 | 995.9 | 3.1 | NO | 47 | 3.4 |
| 03.02.2026 | 12:35 | 3.3 | 94 | 2.4 | 995.9 | 5.4 | NNO | 62 | 3.4 |
| 03.02.2026 | 12:40 | 3.3 | 94 | 2.4 | 995.9 | 3.1 | OSO | 35 | 3.4 |
| 03.02.2026 | 12:45 | 3.3 | 94 | 2.4 | 995.9 | 1.3 | ONO | 53 | 3.4 |
| 03.02.2026 | 12:50 | 3.4 | 94 | 2.5 | 995.9 | 1.3 | NO | 49 | 3.4 |
| 03.02.2026 | 12:55 | 3.4 | 94 | 2.5 | 995.9 | 1.8 | O | 62 | 3.4 |
| 03.02.2026 | 13:00 | 3.5 | 94 | 2.6 | 996.0 | 2.7 | ONO | 70 | 3.4 |
| 03.02.2026 | 13:05 | 3.5 | 94 | 2.6 | 995.9 | 3.6 | SO | 70 | 3.4 |
| 03.02.2026 | 13:10 | 3.6 | 94 | 2.7 | 996.0 | 2.7 | ONO | 86 | 3.4 |
| 03.02.2026 | 13:15 | 3.7 | 94 | 2.8 | 995.9 | 1.8 | O | 77 | 3.4 |
| 03.02.2026 | 13:20 | 3.7 | 94 | 2.8 | 996.0 | 3.6 | OSO | 70 | 3.4 |
| 03.02.2026 | 13:25 | 3.7 | 94 | 2.8 | 996.1 | 1.8 | S | 47 | 3.4 |
| 03.02.2026 | 13:30 | 3.7 | 94 | 2.8 | 996.1 | 2.2 | ONO | 60 | 3.4 |
| 03.02.2026 | 13:35 | 3.8 | 94 | 2.9 | 996.1 | 1.8 | OSO | 77 | 3.4 |
| 03.02.2026 | 13:40 | 3.8 | 94 | 2.9 | 996.0 | 1.8 | O | 63 | 3.4 |
| 03.02.2026 | 13:45 | 3.8 | 94 | 2.9 | 996.0 | 0.9 | O | 67 | 3.4 |
| 03.02.2026 | 13:51 | 3.9 | 94 | 3.0 | 996.0 | 1.3 | SSO | 63 | 3.4 |
| 03.02.2026 | 13:56 | 4.0 | 94 | 3.1 | 995.9 | 2.2 | SSO | 81 | 3.6 |
| 03.02.2026 | 14:01 | 4.1 | 94 | 3.2 | 996.0 | 0.4 | O | 74 | 3.6 |
| 03.02.2026 | 14:06 | 4.1 | 94 | 3.2 | 996.0 | 2.2 | SO | 70 | 3.6 |
| 03.02.2026 | 14:11 | 4.3 | 94 | 3.4 | 996.0 | 1.3 | O | 56 | 3.6 |
| 03.02.2026 | 14:16 | 4.4 | 94 | 3.5 | 996.2 | 1.3 | NO | 51 | 3.6 |
| 03.02.2026 | 14:21 | 4.5 | 94 | 3.6 | 996.1 | 2.7 | O | 67 | 3.8 |
| 03.02.2026 | 14:26 | 4.7 | 94 | 3.8 | 996.1 | 2.2 | S | 62 | 3.8 |
| 03.02.2026 | 14:31 | 4.9 | 94 | 4.0 | 996.2 | 1.3 | SW | 77 | 3.8 |
| 03.02.2026 | 14:36 | 5.0 | 94 | 4.1 | 996.4 | 0.9 | SSO | 79 | 3.8 |
| 03.02.2026 | 14:41 | 5.3 | 94 | 4.4 | 996.4 | 2.7 | S | 83 | 3.8 |
| 03.02.2026 | 14:46 | 5.4 | 94 | 4.5 | 996.4 | 1.8 | SO | 77 | 3.8 |
| 03.02.2026 | 14:51 | 5.6 | 94 | 4.7 | 996.4 | 1.8 | O | 88 | 3.8 |
| 03.02.2026 | 14:56 | 5.6 | 94 | 4.7 | 996.5 | 1.3 | SO | 79 | 4.0 |
| 03.02.2026 | 15:01 | 5.7 | 94 | 4.8 | 996.5 | 2.2 | ONO | 72 | 4.0 |
| 03.02.2026 | 15:06 | 5.7 | 94 | 4.8 | 996.6 | 2.7 | S | 69 | 4.0 |
| 03.02.2026 | 15:11 | 5.7 | 94 | 4.8 | 996.6 | 2.2 | SSO | 83 | 4.0 |
| 03.02.2026 | 15:16 | 5.9 | 94 | 5.0 | 996.7 | 1.8 | SO | 79 | 4.0 |
| 03.02.2026 | 15:21 | 6.0 | 94 | 5.1 | 996.7 | 1.3 | OSO | 67 | 4.0 |
| 03.02.2026 | 15:26 | 6.0 | 94 | 5.1 | 996.9 | 1.8 | S | 74 | 4.0 |
| 03.02.2026 | 15:31 | 6.1 | 94 | 5.2 | 996.9 | 1.3 | OSO | 76 | 4.0 |
| 03.02.2026 | 15:36 | 6.1 | 94 | 5.2 | 997.0 | 1.3 | S | 51 | 4.0 |
| 03.02.2026 | 15:41 | 6.1 | 94 | 5.2 | 997.0 | 0.9 | SSW | 46 | 4.0 |
| 03.02.2026 | 15:46 | 6.2 | 94 | 5.3 | 997.0 | 0.9 | S | 25 | 4.0 |
| 03.02.2026 | 15:51 | 6.2 | 94 | 5.3 | 997.1 | 0.4 | S | 30 | 4.2 |
| 03.02.2026 | 15:56 | 6.2 | 94 | 5.3 | 997.2 | 0.9 | SO | 30 | 4.2 |
| 03.02.2026 | 16:01 | 6.2 | 94 | 5.3 | 997.2 | 0.4 | SO | 32 | 4.2 |
| 03.02.2026 | 16:06 | 6.3 | 94 | 5.4 | 997.2 | 0.9 | SO | 37 | 4.2 |
| 03.02.2026 | 16:11 | 6.3 | 94 | 5.4 | 997.3 | 1.8 | SO | 28 | 4.4 |
| 03.02.2026 | 16:16 | 6.4 | 94 | 5.5 | 997.3 | 0.4 | SO | 18 | 4.4 |
| 03.02.2026 | 16:21 | 6.6 | 94 | 5.7 | 997.3 | 0.9 | S | 21 | 4.4 |
| 03.02.2026 | 16:26 | 6.8 | 94 | 5.9 | 997.3 | 1.8 | S | 32 | 4.4 |
| 03.02.2026 | 16:32 | 6.9 | 94 | 6.0 | 997.3 | 0.4 | SSW | 37 | 4.4 |
| 03.02.2026 | 16:37 | 7.0 | 94 | 6.1 | 997.4 | 1.3 | SW | 30 | 4.4 |
| 03.02.2026 | 16:42 | 7.1 | 94 | 6.2 | 997.4 | 1.3 | S | 21 | 4.4 |
| 03.02.2026 | 16:47 | 7.1 | 94 | 6.2 | 997.4 | 1.8 | OSO | 16 | 4.4 |
| 03.02.2026 | 16:52 | 7.2 | 94 | 6.3 | 997.5 | 0.9 | S | 12 | 4.4 |
| 03.02.2026 | 16:57 | 7.2 | 94 | 6.3 | 997.6 | 1.8 | SSW | 9 | 4.4 |
| 03.02.2026 | 17:02 | 7.2 | 94 | 6.3 | 997.6 | 0.4 | SO | 0 | 4.6 |
| 03.02.2026 | 17:07 | 7.2 | 94 | 6.3 | 997.5 | 2.7 | S | 0 | 4.6 |
| 03.02.2026 | 17:12 | 7.2 | 94 | 6.3 | 997.6 | 1.3 | SO | 0 | 4.6 |
| 03.02.2026 | 17:17 | 7.2 | 94 | 6.3 | 997.6 | 1.3 | SSW | 0 | 4.8 |
| 03.02.2026 | 17:22 | 7.1 | 94 | 6.2 | 997.7 | 1.8 | S | 0 | 5.0 |
| 03.02.2026 | 17:27 | 7.1 | 94 | 6.2 | 997.8 | 2.2 | SSW | 5 | 5.0 |
| 03.02.2026 | 17:32 | 7.1 | 94 | 6.2 | 997.9 | 1.8 | SSW | 0 | 5.0 |
| 03.02.2026 | 17:37 | 7.1 | 94 | 6.2 | 997.9 | 2.2 | SSW | 0 | 5.0 |
| 03.02.2026 | 17:42 | 7.1 | 94 | 6.2 | 998.0 | 0.9 | SSW | 0 | 5.0 |
| 03.02.2026 | 17:47 | 7.1 | 94 | 6.2 | 998.0 | 2.2 | SSO | 0 | 5.0 |
| 03.02.2026 | 17:52 | 7.1 | 94 | 6.2 | 998.1 | 1.8 | S | 0 | 5.0 |
| 03.02.2026 | 17:57 | 7.1 | 94 | 6.2 | 998.1 | 2.2 | S | 0 | 5.0 |
| 03.02.2026 | 18:02 | 7.1 | 94 | 6.2 | 998.3 | 0.9 | OSO | 0 | 5.0 |
| 03.02.2026 | 18:07 | 7.1 | 94 | 6.2 | 998.2 | 1.3 | SSW | 0 | 5.0 |
| 03.02.2026 | 18:12 | 7.1 | 94 | 6.2 | 998.3 | 1.8 | SO | 0 | 5.0 |
| 03.02.2026 | 18:17 | 7.1 | 94 | 6.2 | 998.4 | 3.1 | SSW | 0 | 5.0 |
| 03.02.2026 | 18:22 | 7.1 | 94 | 6.2 | 998.4 | 0.9 | S | 0 | 5.0 |
| 03.02.2026 | 18:27 | 7.1 | 94 | 6.2 | 998.4 | 2.7 | S | 0 | 5.0 |
| 03.02.2026 | 18:32 | 7.1 | 94 | 6.2 | 998.5 | 0.9 | S | 0 | 5.0 |
| 03.02.2026 | 18:37 | 7.0 | 94 | 6.1 | 998.5 | 0.4 | S | 0 | 5.0 |
| 03.02.2026 | 18:42 | 7.0 | 94 | 6.1 | 998.6 | 1.3 | SSW | 0 | 5.0 |
| 03.02.2026 | 18:47 | 7.0 | 94 | 6.1 | 998.6 | 0.9 | SSO | 0 | 5.0 |
| 03.02.2026 | 18:52 | 7.0 | 94 | 6.1 | 998.7 | 0.9 | SSW | 0 | 5.0 |
| 03.02.2026 | 18:57 | 6.9 | 94 | 6.0 | 998.7 | 0.9 | S | 0 | 5.0 |
| 03.02.2026 | 19:02 | 6.9 | 94 | 6.0 | 998.7 | 1.8 | SSW | 0 | 5.0 |
| 03.02.2026 | 19:07 | 6.9 | 94 | 6.0 | 998.8 | 0.9 | SSW | 0 | 5.0 |
| 03.02.2026 | 19:12 | 6.8 | 94 | 5.9 | 998.9 | 0.4 | S | 0 | 5.0 |
| 03.02.2026 | 19:18 | 6.7 | 94 | 5.8 | 998.9 | 0.9 | S | 0 | 5.0 |
| 03.02.2026 | 19:23 | 6.6 | 94 | 5.7 | 999.0 | 0.4 | S | 0 | 5.0 |
| 03.02.2026 | 19:28 | 6.5 | 94 | 5.6 | 999.1 | 0.0 | SO | 0 | 5.0 |
| 03.02.2026 | 19:33 | 6.4 | 94 | 5.5 | 999.0 | 1.3 | SO | 0 | 5.0 |
| 03.02.2026 | 19:38 | 6.4 | 94 | 5.5 | 999.0 | 0.4 | SSO | 0 | 5.0 |
| 03.02.2026 | 19:43 | 6.3 | 94 | 5.4 | 999.1 | 0.9 | SSO | 0 | 5.0 |
| 03.02.2026 | 19:48 | 6.3 | 94 | 5.4 | 999.1 | 0.9 | SO | 0 | 5.0 |
| 03.02.2026 | 19:53 | 6.2 | 94 | 5.3 | 999.1 | 0.0 | SSW | 0 | 5.0 |
| 03.02.2026 | 19:58 | 6.1 | 94 | 5.2 | 999.1 | 0.0 | SW | 0 | 5.0 |
| 03.02.2026 | 20:03 | 6.1 | 94 | 5.2 | 999.1 | 0.0 | SO | 0 | 5.0 |
| 03.02.2026 | 20:08 | 6.1 | 94 | 5.2 | 999.1 | 0.4 | SSO | 0 | 5.0 |
| 03.02.2026 | 20:13 | 6.1 | 94 | 5.2 | 999.1 | 1.3 | SSO | 0 | 5.0 |
| 03.02.2026 | 20:18 | 6.1 | 94 | 5.2 | 999.1 | 1.3 | S | 0 | 5.0 |
| 03.02.2026 | 20:23 | 6.0 | 94 | 5.1 | 999.2 | 0.4 | S | 0 | 5.0 |
| 03.02.2026 | 20:28 | 6.0 | 94 | 5.1 | 999.3 | 0.9 | S | 0 | 5.0 |
| 03.02.2026 | 20:33 | 5.9 | 94 | 5.0 | 999.3 | 0.0 | S | 0 | 5.0 |
| 03.02.2026 | 20:38 | 5.9 | 94 | 5.0 | 999.4 | 0.9 | S | 0 | 5.0 |
| 03.02.2026 | 20:43 | 5.9 | 94 | 5.0 | 999.4 | 0.0 | SSO | 0 | 5.0 |
| 03.02.2026 | 20:48 | 5.9 | 94 | 5.0 | 999.4 | 0.4 | SO | 0 | 5.0 |
| 03.02.2026 | 20:53 | 5.8 | 94 | 4.9 | 999.4 | 1.3 | S | 0 | 5.0 |
| 03.02.2026 | 20:58 | 5.8 | 94 | 4.9 | 999.4 | 0.9 | SSO | 0 | 5.0 |
| 03.02.2026 | 21:03 | 5.8 | 94 | 4.9 | 999.4 | 0.0 | SSO | 0 | 5.0 |
| 03.02.2026 | 21:08 | 5.7 | 94 | 4.8 | 999.5 | 0.4 | SO | 0 | 5.0 |
| 03.02.2026 | 21:13 | 5.6 | 94 | 4.7 | 999.5 | 0.0 | OSO | 0 | 5.0 |
| 03.02.2026 | 21:18 | 5.6 | 94 | 4.7 | 999.5 | 0.4 | SO | 0 | 5.0 |
| 03.02.2026 | 21:23 | 5.6 | 94 | 4.7 | 999.6 | 0.4 | SSO | 0 | 5.0 |
| 03.02.2026 | 21:28 | 5.6 | 94 | 4.7 | 999.6 | 0.4 | SO | 0 | 5.0 |
| 03.02.2026 | 21:33 | 5.6 | 94 | 4.7 | 999.6 | 0.0 | SO | 0 | 5.0 |
| 03.02.2026 | 21:38 | 5.5 | 94 | 4.6 | 999.7 | 0.4 | OSO | 0 | 5.0 |
| 03.02.2026 | 21:43 | 5.5 | 94 | 4.6 | 999.7 | 0.0 | SSO | 0 | 5.0 |
| 03.02.2026 | 21:48 | 5.5 | 94 | 4.6 | 999.7 | 0.4 | SO | 0 | 5.0 |
| 03.02.2026 | 21:53 | 5.4 | 94 | 4.5 | 999.8 | 0.4 | SSO | 0 | 5.0 |
| 03.02.2026 | 21:58 | 5.4 | 94 | 4.5 | 999.7 | 0.9 | OSO | 0 | 5.0 |
| 03.02.2026 | 22:03 | 5.4 | 94 | 4.5 | 999.7 | 0.0 | SO | 0 | 5.0 |
| 03.02.2026 | 22:09 | 5.4 | 94 | 4.5 | 999.7 | 0.4 | SSO | 0 | 5.0 |
| 03.02.2026 | 22:14 | 5.4 | 94 | 4.5 | 999.7 | 0.0 | S | 0 | 5.0 |
| 03.02.2026 | 22:19 | 5.4 | 94 | 4.5 | 999.7 | 0.0 | SO | 0 | 5.2 |
| 03.02.2026 | 22:24 | 5.3 | 94 | 4.4 | 999.8 | 0.0 | SO | 0 | 5.2 |
| 03.02.2026 | 22:29 | 5.3 | 94 | 4.4 | 999.8 | 0.0 | SSO | 0 | 5.2 |
| 03.02.2026 | 22:34 | 5.2 | 94 | 4.3 | 999.8 | 0.9 | OSO | 0 | 5.2 |
| 03.02.2026 | 22:39 | 5.2 | 94 | 4.3 | 999.9 | 0.4 | SSO | 0 | 5.2 |
| 03.02.2026 | 22:44 | 5.1 | 94 | 4.2 | 999.9 | 0.4 | SO | 0 | 5.2 |
| 03.02.2026 | 22:49 | 5.1 | 94 | 4.2 | 999.9 | 0.4 | OSO | 0 | 5.2 |
| 03.02.2026 | 22:54 | 5.1 | 94 | 4.2 | 999.9 | 0.4 | SO | 0 | 5.2 |
| 03.02.2026 | 22:59 | 5.0 | 94 | 4.1 | 999.9 | 0.4 | OSO | 0 | 5.2 |
| 03.02.2026 | 23:04 | 5.0 | 94 | 4.1 | 999.9 | 1.3 | SO | 0 | 5.2 |
| 03.02.2026 | 23:09 | 4.9 | 94 | 4.0 | 999.9 | 0.0 | SO | 0 | 5.2 |
| 03.02.2026 | 23:14 | 4.9 | 94 | 4.0 | 999.9 | 0.0 | SO | 0 | 5.2 |
| 03.02.2026 | 23:19 | 4.8 | 94 | 3.9 | 999.9 | 0.4 | SSO | 0 | 5.2 |
| 03.02.2026 | 23:24 | 4.8 | 94 | 3.9 | 1000.0 | 0.4 | SSO | 0 | 5.2 |
| 03.02.2026 | 23:29 | 4.8 | 94 | 3.9 | 999.9 | 0.0 | SO | 0 | 5.2 |
| 03.02.2026 | 23:34 | 4.8 | 94 | 3.9 | 999.9 | 0.0 | SO | 0 | 5.2 |
| 03.02.2026 | 23:39 | 4.7 | 94 | 3.8 | 1000.0 | 1.3 | SO | 0 | 5.2 |
| 03.02.2026 | 23:44 | 4.6 | 94 | 3.7 | 1000.1 | 0.0 | SO | 0 | 5.2 |
| 03.02.2026 | 23:49 | 4.5 | 94 | 3.6 | 1000.1 | 0.9 | SO | 0 | 5.2 |
| 03.02.2026 | 23:54 | 4.5 | 94 | 3.6 | 1000.2 | 0.0 | SO | 0 | 5.2 |
| 03.02.2026 | 23:59 | 4.5 | 94 | 3.6 | 1000.2 | 0.0 | SO | 0 | 5.2 |